sensor_id;sensor_type;location;lat;lon;timestamp;P1;durP1;ratioP1;P2;durP2;ratioP2
11767;SDS011;5941;57.652;12.514;2023-03-01T00:01:58;4.13;;;2.10;;
11767;SDS011;5941;57.652;12.514;2023-03-01T00:04:24;2.97;;;1.90;;
11767;SDS011;5941;57.652;12.514;2023-03-01T00:06:50;2.20;;;1.90;;
11767;SDS011;5941;57.652;12.514;2023-03-01T00:09:16;3.00;;;2.10;;
11767;SDS011;5941;57.652;12.514;2023-03-01T00:11:43;3.20;;;1.83;;
11767;SDS011;5941;57.652;12.514;2023-03-01T00:14:09;3.53;;;1.80;;
11767;SDS011;5941;57.652;12.514;2023-03-01T00:16:44;2.43;;;2.03;;
11767;SDS011;5941;57.652;12.514;2023-03-01T00:19:11;5.17;;;2.10;;
11767;SDS011;5941;57.652;12.514;2023-03-01T00:21:37;3.97;;;2.33;;
11767;SDS011;5941;57.652;12.514;2023-03-01T00:24:03;5.40;;;1.73;;
11767;SDS011;5941;57.652;12.514;2023-03-01T00:26:30;3.73;;;2.00;;
11767;SDS011;5941;57.652;12.514;2023-03-01T00:28:56;2.43;;;1.87;;
11767;SDS011;5941;57.652;12.514;2023-03-01T00:31:23;3.07;;;2.10;;
11767;SDS011;5941;57.652;12.514;2023-03-01T00:33:52;2.93;;;1.80;;
11767;SDS011;5941;57.652;12.514;2023-03-01T00:36:21;2.97;;;1.83;;
11767;SDS011;5941;57.652;12.514;2023-03-01T00:38:47;2.17;;;1.83;;
11767;SDS011;5941;57.652;12.514;2023-03-01T00:41:15;4.83;;;2.20;;
11767;SDS011;5941;57.652;12.514;2023-03-01T00:43:41;3.00;;;1.63;;
11767;SDS011;5941;57.652;12.514;2023-03-01T00:46:11;2.23;;;1.97;;
11767;SDS011;5941;57.652;12.514;2023-03-01T00:48:37;3.33;;;2.10;;
11767;SDS011;5941;57.652;12.514;2023-03-01T00:51:04;2.00;;;1.73;;
11767;SDS011;5941;57.652;12.514;2023-03-01T00:53:30;2.10;;;1.90;;
11767;SDS011;5941;57.652;12.514;2023-03-01T00:55:56;2.50;;;2.00;;
11767;SDS011;5941;57.652;12.514;2023-03-01T00:58:22;3.63;;;2.10;;
11767;SDS011;5941;57.652;12.514;2023-03-01T01:00:48;2.60;;;1.90;;
11767;SDS011;5941;57.652;12.514;2023-03-01T01:03:15;2.50;;;2.03;;
11767;SDS011;5941;57.652;12.514;2023-03-01T01:05:40;3.70;;;2.03;;
11767;SDS011;5941;57.652;12.514;2023-03-01T01:08:06;2.93;;;1.93;;
11767;SDS011;5941;57.652;12.514;2023-03-01T01:10:35;2.23;;;1.70;;
11767;SDS011;5941;57.652;12.514;2023-03-01T01:13:01;3.10;;;1.90;;
11767;SDS011;5941;57.652;12.514;2023-03-01T01:15:27;2.87;;;1.80;;
11767;SDS011;5941;57.652;12.514;2023-03-01T01:17:53;2.30;;;1.70;;
11767;SDS011;5941;57.652;12.514;2023-03-01T01:20:20;2.23;;;1.67;;
11767;SDS011;5941;57.652;12.514;2023-03-01T01:22:46;2.27;;;1.87;;
11767;SDS011;5941;57.652;12.514;2023-03-01T01:25:11;2.50;;;1.77;;
11767;SDS011;5941;57.652;12.514;2023-03-01T01:27:37;3.43;;;2.20;;
11767;SDS011;5941;57.652;12.514;2023-03-01T01:30:03;2.93;;;1.87;;
11767;SDS011;5941;57.652;12.514;2023-03-01T01:32:30;2.03;;;1.63;;
11767;SDS011;5941;57.652;12.514;2023-03-01T01:34:56;3.73;;;1.70;;
11767;SDS011;5941;57.652;12.514;2023-03-01T01:37:22;2.70;;;1.70;;
11767;SDS011;5941;57.652;12.514;2023-03-01T01:39:48;3.57;;;1.73;;
11767;SDS011;5941;57.652;12.514;2023-03-01T01:42:17;2.73;;;1.63;;
11767;SDS011;5941;57.652;12.514;2023-03-01T01:44:46;2.33;;;1.80;;
11767;SDS011;5941;57.652;12.514;2023-03-01T01:47:14;3.77;;;2.00;;
11767;SDS011;5941;57.652;12.514;2023-03-01T01:49:43;2.73;;;2.03;;
11767;SDS011;5941;57.652;12.514;2023-03-01T01:54:40;3.00;;;1.90;;
11767;SDS011;5941;57.652;12.514;2023-03-01T01:57:09;5.90;;;1.90;;
11767;SDS011;5941;57.652;12.514;2023-03-01T01:59:36;2.00;;;1.73;;
11767;SDS011;5941;57.652;12.514;2023-03-01T02:02:03;2.50;;;1.80;;
11767;SDS011;5941;57.652;12.514;2023-03-01T02:04:29;2.23;;;1.67;;
11767;SDS011;5941;57.652;12.514;2023-03-01T02:07:04;1.73;;;1.57;;
11767;SDS011;5941;57.652;12.514;2023-03-01T02:09:32;1.93;;;1.70;;
11767;SDS011;5941;57.652;12.514;2023-03-01T02:11:59;4.13;;;1.90;;
11767;SDS011;5941;57.652;12.514;2023-03-01T02:14:25;2.07;;;1.87;;
11767;SDS011;5941;57.652;12.514;2023-03-01T02:16:51;3.03;;;1.60;;
11767;SDS011;5941;57.652;12.514;2023-03-01T02:24:42;2.93;;;1.80;;
11767;SDS011;5941;57.652;12.514;2023-03-01T02:27:09;2.47;;;1.80;;
11767;SDS011;5941;57.652;12.514;2023-03-01T02:29:35;1.93;;;1.73;;
11767;SDS011;5941;57.652;12.514;2023-03-01T02:32:02;2.13;;;1.63;;
11767;SDS011;5941;57.652;12.514;2023-03-01T02:34:28;2.50;;;1.60;;
11767;SDS011;5941;57.652;12.514;2023-03-01T02:36:59;2.00;;;1.77;;
11767;SDS011;5941;57.652;12.514;2023-03-01T02:39:46;3.33;;;1.90;;
11767;SDS011;5941;57.652;12.514;2023-03-01T02:42:18;2.63;;;2.00;;
11767;SDS011;5941;57.652;12.514;2023-03-01T02:44:47;4.03;;;1.80;;
11767;SDS011;5941;57.652;12.514;2023-03-01T02:47:14;2.13;;;1.93;;
11767;SDS011;5941;57.652;12.514;2023-03-01T02:49:40;3.53;;;2.10;;
11767;SDS011;5941;57.652;12.514;2023-03-01T02:54:54;1.73;;;1.53;;
11767;SDS011;5941;57.652;12.514;2023-03-01T02:57:23;2.40;;;1.83;;
11767;SDS011;5941;57.652;12.514;2023-03-01T02:59:49;2.43;;;1.87;;
11767;SDS011;5941;57.652;12.514;2023-03-01T03:02:22;2.10;;;1.77;;
11767;SDS011;5941;57.652;12.514;2023-03-01T03:05:34;1.73;;;1.57;;
11767;SDS011;5941;57.652;12.514;2023-03-01T03:07:53;2.17;;;1.50;;
11767;SDS011;5941;57.652;12.514;2023-03-01T03:10:22;2.43;;;1.70;;
11767;SDS011;5941;57.652;12.514;2023-03-01T03:12:50;2.67;;;1.70;;
11767;SDS011;5941;57.652;12.514;2023-03-01T03:15:16;3.17;;;2.00;;
11767;SDS011;5941;57.652;12.514;2023-03-01T03:17:42;1.60;;;1.37;;
11767;SDS011;5941;57.652;12.514;2023-03-01T03:20:09;3.40;;;1.53;;
11767;SDS011;5941;57.652;12.514;2023-03-01T03:22:40;2.47;;;1.57;;
11767;SDS011;5941;57.652;12.514;2023-03-01T03:25:09;3.37;;;1.87;;
11767;SDS011;5941;57.652;12.514;2023-03-01T03:27:36;1.47;;;1.30;;
11767;SDS011;5941;57.652;12.514;2023-03-01T03:30:03;2.27;;;1.50;;
11767;SDS011;5941;57.652;12.514;2023-03-01T03:32:33;2.30;;;1.60;;
11767;SDS011;5941;57.652;12.514;2023-03-01T03:35:00;2.07;;;1.50;;
11767;SDS011;5941;57.652;12.514;2023-03-01T03:37:26;1.80;;;1.50;;
11767;SDS011;5941;57.652;12.514;2023-03-01T03:40:10;2.10;;;1.40;;
11767;SDS011;5941;57.652;12.514;2023-03-01T03:42:40;2.80;;;1.67;;
11767;SDS011;5941;57.652;12.514;2023-03-01T03:45:06;2.67;;;1.67;;
11767;SDS011;5941;57.652;12.514;2023-03-01T03:47:32;2.00;;;1.50;;
11767;SDS011;5941;57.652;12.514;2023-03-01T03:49:58;2.10;;;1.50;;
11767;SDS011;5941;57.652;12.514;2023-03-01T03:52:24;1.93;;;1.73;;
11767;SDS011;5941;57.652;12.514;2023-03-01T03:54:50;1.43;;;1.33;;
11767;SDS011;5941;57.652;12.514;2023-03-01T03:57:16;1.47;;;1.30;;
11767;SDS011;5941;57.652;12.514;2023-03-01T03:59:42;3.40;;;1.40;;
11767;SDS011;5941;57.652;12.514;2023-03-01T04:02:08;1.70;;;1.47;;
11767;SDS011;5941;57.652;12.514;2023-03-01T04:04:34;2.27;;;1.57;;
11767;SDS011;5941;57.652;12.514;2023-03-01T04:07:00;1.80;;;1.40;;
11767;SDS011;5941;57.652;12.514;2023-03-01T04:09:25;2.37;;;1.50;;
11767;SDS011;5941;57.652;12.514;2023-03-01T04:11:51;4.10;;;1.50;;
11767;SDS011;5941;57.652;12.514;2023-03-01T04:14:17;1.20;;;1.10;;
11767;SDS011;5941;57.652;12.514;2023-03-01T04:16:43;1.93;;;1.40;;
11767;SDS011;5941;57.652;12.514;2023-03-01T04:19:09;1.83;;;1.70;;
11767;SDS011;5941;57.652;12.514;2023-03-01T04:21:35;1.80;;;1.40;;
11767;SDS011;5941;57.652;12.514;2023-03-01T04:24:01;1.53;;;1.40;;
11767;SDS011;5941;57.652;12.514;2023-03-01T04:26:28;4.10;;;1.50;;
11767;SDS011;5941;57.652;12.514;2023-03-01T04:28:54;2.97;;;1.53;;
11767;SDS011;5941;57.652;12.514;2023-03-01T04:31:20;1.83;;;1.40;;
11767;SDS011;5941;57.652;12.514;2023-03-01T04:36:19;1.93;;;1.63;;
11767;SDS011;5941;57.652;12.514;2023-03-01T04:38:45;2.27;;;1.63;;
11767;SDS011;5941;57.652;12.514;2023-03-01T04:41:12;2.70;;;1.53;;
11767;SDS011;5941;57.652;12.514;2023-03-01T04:43:38;1.83;;;1.33;;
11767;SDS011;5941;57.652;12.514;2023-03-01T04:46:05;2.97;;;1.80;;
11767;SDS011;5941;57.652;12.514;2023-03-01T04:48:33;1.73;;;1.50;;
11767;SDS011;5941;57.652;12.514;2023-03-01T04:50:59;2.03;;;1.60;;
11767;SDS011;5941;57.652;12.514;2023-03-01T04:53:26;1.47;;;1.30;;
11767;SDS011;5941;57.652;12.514;2023-03-01T04:55:53;1.60;;;1.50;;
11767;SDS011;5941;57.652;12.514;2023-03-01T04:58:19;1.40;;;1.30;;
11767;SDS011;5941;57.652;12.514;2023-03-01T05:00:45;1.40;;;1.30;;
11767;SDS011;5941;57.652;12.514;2023-03-01T05:03:11;2.20;;;1.63;;
11767;SDS011;5941;57.652;12.514;2023-03-01T05:05:37;1.97;;;1.60;;
11767;SDS011;5941;57.652;12.514;2023-03-01T05:08:04;1.90;;;1.60;;
11767;SDS011;5941;57.652;12.514;2023-03-01T05:10:31;2.20;;;1.60;;
11767;SDS011;5941;57.652;12.514;2023-03-01T05:12:58;1.37;;;1.20;;
11767;SDS011;5941;57.652;12.514;2023-03-01T05:15:25;2.70;;;1.70;;
11767;SDS011;5941;57.652;12.514;2023-03-01T05:17:52;1.90;;;1.30;;
11767;SDS011;5941;57.652;12.514;2023-03-01T05:20:19;2.33;;;1.40;;
11767;SDS011;5941;57.652;12.514;2023-03-01T05:22:47;1.50;;;1.40;;
11767;SDS011;5941;57.652;12.514;2023-03-01T05:25:13;3.70;;;1.30;;
11767;SDS011;5941;57.652;12.514;2023-03-01T05:27:39;1.70;;;1.50;;
11767;SDS011;5941;57.652;12.514;2023-03-01T05:30:05;1.93;;;1.40;;
11767;SDS011;5941;57.652;12.514;2023-03-01T05:32:46;2.20;;;1.57;;
11767;SDS011;5941;57.652;12.514;2023-03-01T05:35:12;1.53;;;1.30;;
11767;SDS011;5941;57.652;12.514;2023-03-01T05:37:39;1.57;;;1.30;;
11767;SDS011;5941;57.652;12.514;2023-03-01T05:40:06;2.13;;;1.43;;
11767;SDS011;5941;57.652;12.514;2023-03-01T05:42:40;2.13;;;1.50;;
11767;SDS011;5941;57.652;12.514;2023-03-01T05:45:06;2.13;;;1.60;;
11767;SDS011;5941;57.652;12.514;2023-03-01T05:47:34;1.70;;;1.43;;
11767;SDS011;5941;57.652;12.514;2023-03-01T05:50:00;1.63;;;1.23;;
11767;SDS011;5941;57.652;12.514;2023-03-01T05:52:26;4.13;;;1.50;;
11767;SDS011;5941;57.652;12.514;2023-03-01T05:54:52;1.80;;;1.40;;
11767;SDS011;5941;57.652;12.514;2023-03-01T05:57:18;1.60;;;1.50;;
11767;SDS011;5941;57.652;12.514;2023-03-01T05:59:45;1.77;;;1.30;;
11767;SDS011;5941;57.652;12.514;2023-03-01T06:02:11;1.53;;;1.23;;
11767;SDS011;5941;57.652;12.514;2023-03-01T06:04:37;2.07;;;1.33;;
11767;SDS011;5941;57.652;12.514;2023-03-01T06:07:03;1.40;;;1.20;;
11767;SDS011;5941;57.652;12.514;2023-03-01T06:09:29;1.90;;;1.40;;
11767;SDS011;5941;57.652;12.514;2023-03-01T06:11:55;1.60;;;1.23;;
11767;SDS011;5941;57.652;12.514;2023-03-01T06:14:20;1.23;;;1.13;;
11767;SDS011;5941;57.652;12.514;2023-03-01T06:16:46;1.40;;;1.30;;
11767;SDS011;5941;57.652;12.514;2023-03-01T06:19:12;1.87;;;1.23;;
11767;SDS011;5941;57.652;12.514;2023-03-01T06:21:38;1.47;;;1.23;;
11767;SDS011;5941;57.652;12.514;2023-03-01T06:24:04;2.90;;;1.53;;
11767;SDS011;5941;57.652;12.514;2023-03-01T06:26:32;2.33;;;1.30;;
11767;SDS011;5941;57.652;12.514;2023-03-01T06:28:58;1.70;;;1.50;;
11767;SDS011;5941;57.652;12.514;2023-03-01T06:31:24;1.90;;;1.40;;
11767;SDS011;5941;57.652;12.514;2023-03-01T06:33:50;3.03;;;1.53;;
11767;SDS011;5941;57.652;12.514;2023-03-01T06:36:16;2.23;;;1.70;;
11767;SDS011;5941;57.652;12.514;2023-03-01T06:38:43;2.50;;;1.77;;
11767;SDS011;5941;57.652;12.514;2023-03-01T06:41:09;3.30;;;2.23;;
11767;SDS011;5941;57.652;12.514;2023-03-01T06:43:35;4.13;;;2.30;;
11767;SDS011;5941;57.652;12.514;2023-03-01T06:46:04;4.87;;;2.90;;
11767;SDS011;5941;57.652;12.514;2023-03-01T06:48:31;14.10;;;7.63;;
11767;SDS011;5941;57.652;12.514;2023-03-01T06:50:58;8.40;;;4.37;;
11767;SDS011;5941;57.652;12.514;2023-03-01T06:53:25;3.33;;;1.77;;
11767;SDS011;5941;57.652;12.514;2023-03-01T06:55:55;1.83;;;1.60;;
11767;SDS011;5941;57.652;12.514;2023-03-01T06:58:21;2.23;;;1.50;;
11767;SDS011;5941;57.652;12.514;2023-03-01T07:00:47;3.03;;;1.30;;
11767;SDS011;5941;57.652;12.514;2023-03-01T07:03:13;2.13;;;1.43;;
11767;SDS011;5941;57.652;12.514;2023-03-01T07:05:39;1.10;;;0.97;;
11767;SDS011;5941;57.652;12.514;2023-03-01T07:08:04;2.03;;;1.70;;
11767;SDS011;5941;57.652;12.514;2023-03-01T07:10:30;1.60;;;1.40;;
11767;SDS011;5941;57.652;12.514;2023-03-01T07:12:57;1.90;;;1.30;;
11767;SDS011;5941;57.652;12.514;2023-03-01T07:15:24;1.77;;;1.67;;
11767;SDS011;5941;57.652;12.514;2023-03-01T07:17:50;7.00;;;1.77;;
11767;SDS011;5941;57.652;12.514;2023-03-01T07:20:19;1.80;;;1.03;;
11767;SDS011;5941;57.652;12.514;2023-03-01T07:22:50;1.47;;;1.20;;
11767;SDS011;5941;57.652;12.514;2023-03-01T07:25:16;1.93;;;1.17;;
11767;SDS011;5941;57.652;12.514;2023-03-01T07:27:42;2.13;;;1.13;;
11767;SDS011;5941;57.652;12.514;2023-03-01T07:30:08;1.90;;;1.13;;
11767;SDS011;5941;57.652;12.514;2023-03-01T07:32:35;1.47;;;1.20;;
11767;SDS011;5941;57.652;12.514;2023-03-01T07:35:01;3.20;;;1.30;;
11767;SDS011;5941;57.652;12.514;2023-03-01T07:37:27;3.00;;;1.20;;
11767;SDS011;5941;57.652;12.514;2023-03-01T07:39:53;1.87;;;1.10;;
11767;SDS011;5941;57.652;12.514;2023-03-01T07:42:19;3.30;;;1.30;;
11767;SDS011;5941;57.652;12.514;2023-03-01T07:44:45;1.87;;;1.33;;
11767;SDS011;5941;57.652;12.514;2023-03-01T07:47:11;1.90;;;1.40;;
11767;SDS011;5941;57.652;12.514;2023-03-01T07:49:37;2.67;;;1.20;;
11767;SDS011;5941;57.652;12.514;2023-03-01T07:52:03;2.47;;;1.10;;
11767;SDS011;5941;57.652;12.514;2023-03-01T07:54:29;1.93;;;1.10;;
11767;SDS011;5941;57.652;12.514;2023-03-01T07:56:56;2.27;;;1.13;;
11767;SDS011;5941;57.652;12.514;2023-03-01T07:59:22;1.80;;;1.33;;
11767;SDS011;5941;57.652;12.514;2023-03-01T08:01:53;3.47;;;1.50;;
11767;SDS011;5941;57.652;12.514;2023-03-01T08:04:19;2.97;;;1.40;;
11767;SDS011;5941;57.652;12.514;2023-03-01T08:06:45;1.67;;;1.40;;
11767;SDS011;5941;57.652;12.514;2023-03-01T08:09:11;2.70;;;1.43;;
11767;SDS011;5941;57.652;12.514;2023-03-01T08:11:37;3.17;;;1.17;;
11767;SDS011;5941;57.652;12.514;2023-03-01T08:14:03;1.30;;;1.20;;
11767;SDS011;5941;57.652;12.514;2023-03-01T08:16:29;2.40;;;1.40;;
11767;SDS011;5941;57.652;12.514;2023-03-01T08:18:55;1.87;;;1.20;;
11767;SDS011;5941;57.652;12.514;2023-03-01T08:21:24;1.67;;;1.20;;
11767;SDS011;5941;57.652;12.514;2023-03-01T08:23:50;1.00;;;0.90;;
11767;SDS011;5941;57.652;12.514;2023-03-01T08:26:17;1.30;;;1.20;;
11767;SDS011;5941;57.652;12.514;2023-03-01T08:28:43;2.50;;;1.20;;
11767;SDS011;5941;57.652;12.514;2023-03-01T08:31:17;1.37;;;1.20;;
11767;SDS011;5941;57.652;12.514;2023-03-01T08:33:43;1.47;;;1.03;;
11767;SDS011;5941;57.652;12.514;2023-03-01T08:36:15;1.13;;;1.03;;
11767;SDS011;5941;57.652;12.514;2023-03-01T08:38:41;1.40;;;0.90;;
11767;SDS011;5941;57.652;12.514;2023-03-01T08:41:07;1.73;;;1.20;;
11767;SDS011;5941;57.652;12.514;2023-03-01T08:43:33;1.27;;;1.13;;
11767;SDS011;5941;57.652;12.514;2023-03-01T08:45:59;2.27;;;1.60;;
11767;SDS011;5941;57.652;12.514;2023-03-01T08:48:25;1.77;;;1.40;;
11767;SDS011;5941;57.652;12.514;2023-03-01T08:50:52;2.37;;;1.50;;
11767;SDS011;5941;57.652;12.514;2023-03-01T08:53:18;1.63;;;1.20;;
11767;SDS011;5941;57.652;12.514;2023-03-01T08:55:44;2.20;;;1.40;;
11767;SDS011;5941;57.652;12.514;2023-03-01T08:58:10;1.70;;;1.40;;
11767;SDS011;5941;57.652;12.514;2023-03-01T09:00:37;1.20;;;1.10;;
11767;SDS011;5941;57.652;12.514;2023-03-01T09:03:03;1.63;;;1.13;;
11767;SDS011;5941;57.652;12.514;2023-03-01T09:05:31;1.67;;;1.20;;
11767;SDS011;5941;57.652;12.514;2023-03-01T09:07:57;1.10;;;1.00;;
11767;SDS011;5941;57.652;12.514;2023-03-01T09:10:23;0.77;;;0.77;;
11767;SDS011;5941;57.652;12.514;2023-03-01T09:12:49;2.03;;;1.17;;
11767;SDS011;5941;57.652;12.514;2023-03-01T09:15:15;0.93;;;0.90;;
11767;SDS011;5941;57.652;12.514;2023-03-01T09:17:41;1.60;;;1.00;;
11767;SDS011;5941;57.652;12.514;2023-03-01T09:20:07;2.13;;;0.90;;
11767;SDS011;5941;57.652;12.514;2023-03-01T09:22:33;1.83;;;0.80;;
11767;SDS011;5941;57.652;12.514;2023-03-01T09:25:00;0.80;;;0.80;;
11767;SDS011;5941;57.652;12.514;2023-03-01T09:27:26;1.17;;;0.90;;
11767;SDS011;5941;57.652;12.514;2023-03-01T09:29:52;1.33;;;0.80;;
11767;SDS011;5941;57.652;12.514;2023-03-01T09:32:18;1.27;;;0.90;;
11767;SDS011;5941;57.652;12.514;2023-03-01T09:34:44;1.30;;;0.90;;
11767;SDS011;5941;57.652;12.514;2023-03-01T09:37:28;0.80;;;0.80;;
11767;SDS011;5941;57.652;12.514;2023-03-01T09:39:54;1.17;;;0.90;;
11767;SDS011;5941;57.652;12.514;2023-03-01T09:42:20;2.00;;;1.00;;
11767;SDS011;5941;57.652;12.514;2023-03-01T09:45:00;1.10;;;1.00;;
11767;SDS011;5941;57.652;12.514;2023-03-01T09:47:28;1.83;;;1.73;;
11767;SDS011;5941;57.652;12.514;2023-03-01T09:50:03;1.20;;;0.80;;
11767;SDS011;5941;57.652;12.514;2023-03-01T09:52:39;0.87;;;0.87;;
11767;SDS011;5941;57.652;12.514;2023-03-01T09:55:10;0.97;;;0.90;;
11767;SDS011;5941;57.652;12.514;2023-03-01T09:57:38;1.83;;;1.33;;
11767;SDS011;5941;57.652;12.514;2023-03-01T10:00:28;1.60;;;1.33;;
11767;SDS011;5941;57.652;12.514;2023-03-01T10:05:28;0.90;;;0.80;;
11767;SDS011;5941;57.652;12.514;2023-03-01T10:10:36;2.27;;;0.90;;
11767;SDS011;5941;57.652;12.514;2023-03-01T10:13:23;1.93;;;0.80;;
11767;SDS011;5941;57.652;12.514;2023-03-01T10:15:55;0.60;;;0.60;;
11767;SDS011;5941;57.652;12.514;2023-03-01T10:18:23;1.90;;;0.90;;
11767;SDS011;5941;57.652;12.514;2023-03-01T10:21:01;0.70;;;0.60;;
11767;SDS011;5941;57.652;12.514;2023-03-01T10:23:28;1.53;;;0.93;;
11767;SDS011;5941;57.652;12.514;2023-03-01T10:31:42;1.43;;;0.60;;
11767;SDS011;5941;57.652;12.514;2023-03-01T10:36:38;0.30;;;0.30;;
11767;SDS011;5941;57.652;12.514;2023-03-01T10:39:11;1.80;;;0.30;;
11767;SDS011;5941;57.652;12.514;2023-03-01T10:41:40;0.30;;;0.30;;
11767;SDS011;5941;57.652;12.514;2023-03-01T10:44:10;1.60;;;0.53;;
11767;SDS011;5941;57.652;12.514;2023-03-01T10:46:48;0.40;;;0.40;;
11767;SDS011;5941;57.652;12.514;2023-03-01T10:49:24;0.50;;;0.40;;
11767;SDS011;5941;57.652;12.514;2023-03-01T10:51:51;0.60;;;0.53;;
11767;SDS011;5941;57.652;12.514;2023-03-01T10:56:48;2.53;;;0.77;;
11767;SDS011;5941;57.652;12.514;2023-03-01T10:59:27;1.77;;;0.57;;
11767;SDS011;5941;57.652;12.514;2023-03-01T11:04:28;0.70;;;0.30;;
11767;SDS011;5941;57.652;12.514;2023-03-01T11:06:58;1.03;;;0.40;;
11767;SDS011;5941;57.652;12.514;2023-03-01T11:09:24;0.53;;;0.30;;
11767;SDS011;5941;57.652;12.514;2023-03-01T11:11:54;1.03;;;0.30;;
11767;SDS011;5941;57.652;12.514;2023-03-01T11:14:24;0.40;;;0.23;;
11767;SDS011;5941;57.652;12.514;2023-03-01T11:17:00;0.33;;;0.33;;
11767;SDS011;5941;57.652;12.514;2023-03-01T11:19:27;0.40;;;0.30;;
11767;SDS011;5941;57.652;12.514;2023-03-01T11:22:03;1.33;;;0.30;;
11767;SDS011;5941;57.652;12.514;2023-03-01T11:24:39;1.83;;;0.50;;
11767;SDS011;5941;57.652;12.514;2023-03-01T11:27:10;0.50;;;0.40;;
11767;SDS011;5941;57.652;12.514;2023-03-01T11:29:40;1.83;;;0.27;;
11767;SDS011;5941;57.652;12.514;2023-03-01T11:32:08;0.40;;;0.40;;
11767;SDS011;5941;57.652;12.514;2023-03-01T11:37:22;0.20;;;0.20;;
11767;SDS011;5941;57.652;12.514;2023-03-01T11:39:59;0.40;;;0.40;;
11767;SDS011;5941;57.652;12.514;2023-03-01T11:45:02;0.47;;;0.30;;
11767;SDS011;5941;57.652;12.514;2023-03-01T11:50:13;0.30;;;0.30;;
11767;SDS011;5941;57.652;12.514;2023-03-01T11:52:57;0.57;;;0.50;;
11767;SDS011;5941;57.652;12.514;2023-03-01T12:11:06;0.20;;;0.20;;
11767;SDS011;5941;57.652;12.514;2023-03-01T12:19:01;0.40;;;0.40;;
11767;SDS011;5941;57.652;12.514;2023-03-01T12:21:43;0.43;;;0.43;;
11767;SDS011;5941;57.652;12.514;2023-03-01T12:26:45;0.50;;;0.50;;
11767;SDS011;5941;57.652;12.514;2023-03-01T12:31:49;0.40;;;0.20;;
11767;SDS011;5941;57.652;12.514;2023-03-01T12:42:41;0.73;;;0.70;;
11767;SDS011;5941;57.652;12.514;2023-03-01T12:45:37;0.70;;;0.30;;
11767;SDS011;5941;57.652;12.514;2023-03-01T12:48:23;0.80;;;0.47;;
11767;SDS011;5941;57.652;12.514;2023-03-01T12:50:53;0.20;;;0.20;;
11767;SDS011;5941;57.652;12.514;2023-03-01T12:53:22;0.50;;;0.40;;
11767;SDS011;5941;57.652;12.514;2023-03-01T12:55:48;0.30;;;0.30;;
11767;SDS011;5941;57.652;12.514;2023-03-01T13:05:42;0.67;;;0.40;;
11767;SDS011;5941;57.652;12.514;2023-03-01T13:13:13;0.27;;;0.20;;
11767;SDS011;5941;57.652;12.514;2023-03-01T13:15:40;0.70;;;0.40;;
11767;SDS011;5941;57.652;12.514;2023-03-01T13:25:33;0.60;;;0.40;;
11767;SDS011;5941;57.652;12.514;2023-03-01T13:33:47;0.50;;;0.50;;
11767;SDS011;5941;57.652;12.514;2023-03-01T13:36:58;0.23;;;0.23;;
11767;SDS011;5941;57.652;12.514;2023-03-01T13:39:04;0.40;;;0.40;;
11767;SDS011;5941;57.652;12.514;2023-03-01T13:41:48;0.30;;;0.30;;
11767;SDS011;5941;57.652;12.514;2023-03-01T13:44:25;0.80;;;0.50;;
11767;SDS011;5941;57.652;12.514;2023-03-01T13:46:53;2.20;;;0.60;;
11767;SDS011;5941;57.652;12.514;2023-03-01T13:49:22;2.67;;;0.50;;
11767;SDS011;5941;57.652;12.514;2023-03-01T13:51:49;1.00;;;0.50;;
11767;SDS011;5941;57.652;12.514;2023-03-01T13:54:16;2.00;;;0.57;;
11767;SDS011;5941;57.652;12.514;2023-03-01T13:56:43;0.50;;;0.50;;
11767;SDS011;5941;57.652;12.514;2023-03-01T13:59:20;0.87;;;0.40;;
11767;SDS011;5941;57.652;12.514;2023-03-01T14:02:19;1.27;;;0.60;;
11767;SDS011;5941;57.652;12.514;2023-03-01T14:04:38;0.53;;;0.40;;
11767;SDS011;5941;57.652;12.514;2023-03-01T14:07:12;0.77;;;0.43;;
11767;SDS011;5941;57.652;12.514;2023-03-01T14:09:42;0.60;;;0.50;;
11767;SDS011;5941;57.652;12.514;2023-03-01T14:19:55;0.50;;;0.40;;
11767;SDS011;5941;57.652;12.514;2023-03-01T14:22:23;0.43;;;0.40;;
11767;SDS011;5941;57.652;12.514;2023-03-01T14:24:51;0.60;;;0.40;;
11767;SDS011;5941;57.652;12.514;2023-03-01T14:27:18;0.43;;;0.40;;
11767;SDS011;5941;57.652;12.514;2023-03-01T14:29:44;0.60;;;0.60;;
11767;SDS011;5941;57.652;12.514;2023-03-01T14:32:23;0.30;;;0.30;;
11767;SDS011;5941;57.652;12.514;2023-03-01T14:34:50;0.83;;;0.40;;
11767;SDS011;5941;57.652;12.514;2023-03-01T14:37:21;0.20;;;0.20;;
11767;SDS011;5941;57.652;12.514;2023-03-01T14:39:47;0.83;;;0.40;;
11767;SDS011;5941;57.652;12.514;2023-03-01T14:42:14;0.47;;;0.30;;
11767;SDS011;5941;57.652;12.514;2023-03-01T14:44:41;0.70;;;0.30;;
11767;SDS011;5941;57.652;12.514;2023-03-01T14:47:16;0.27;;;0.27;;
11767;SDS011;5941;57.652;12.514;2023-03-01T14:49:45;0.53;;;0.33;;
11767;SDS011;5941;57.652;12.514;2023-03-01T14:52:22;0.30;;;0.20;;
11767;SDS011;5941;57.652;12.514;2023-03-01T14:54:49;0.60;;;0.30;;
11767;SDS011;5941;57.652;12.514;2023-03-01T14:57:17;0.73;;;0.27;;
11767;SDS011;5941;57.652;12.514;2023-03-01T14:59:44;0.33;;;0.30;;
11767;SDS011;5941;57.652;12.514;2023-03-01T15:02:15;0.67;;;0.20;;
11767;SDS011;5941;57.652;12.514;2023-03-01T15:04:45;0.47;;;0.40;;
11767;SDS011;5941;57.652;12.514;2023-03-01T15:07:12;0.20;;;0.20;;
11767;SDS011;5941;57.652;12.514;2023-03-01T15:09:39;0.70;;;0.30;;
11767;SDS011;5941;57.652;12.514;2023-03-01T15:15:00;0.50;;;0.30;;
11767;SDS011;5941;57.652;12.514;2023-03-01T15:17:33;0.20;;;0.20;;
11767;SDS011;5941;57.652;12.514;2023-03-01T15:20:01;0.63;;;0.20;;
11767;SDS011;5941;57.652;12.514;2023-03-01T15:22:28;0.70;;;0.33;;
11767;SDS011;5941;57.652;12.514;2023-03-01T15:24:54;0.73;;;0.30;;
11767;SDS011;5941;57.652;12.514;2023-03-01T15:27:21;0.87;;;0.20;;
11767;SDS011;5941;57.652;12.514;2023-03-01T15:29:51;0.53;;;0.30;;
11767;SDS011;5941;57.652;12.514;2023-03-01T15:32:34;0.20;;;0.20;;
11767;SDS011;5941;57.652;12.514;2023-03-01T15:37:49;0.60;;;0.30;;
11767;SDS011;5941;57.652;12.514;2023-03-01T15:42:45;0.30;;;0.20;;
11767;SDS011;5941;57.652;12.514;2023-03-01T15:45:21;1.60;;;0.10;;
11767;SDS011;5941;57.652;12.514;2023-03-01T15:47:51;0.10;;;0.10;;
11767;SDS011;5941;57.652;12.514;2023-03-01T15:50:22;0.57;;;0.20;;
11767;SDS011;5941;57.652;12.514;2023-03-01T15:52:49;1.40;;;0.20;;
11767;SDS011;5941;57.652;12.514;2023-03-01T15:55:17;0.57;;;0.20;;
11767;SDS011;5941;57.652;12.514;2023-03-01T15:57:43;0.47;;;0.30;;
11767;SDS011;5941;57.652;12.514;2023-03-01T16:00:10;0.40;;;0.20;;
11767;SDS011;5941;57.652;12.514;2023-03-01T16:02:36;0.10;;;0.10;;
11767;SDS011;5941;57.652;12.514;2023-03-01T16:05:02;0.20;;;0.20;;
11767;SDS011;5941;57.652;12.514;2023-03-01T16:07:28;0.20;;;0.20;;
11767;SDS011;5941;57.652;12.514;2023-03-01T16:09:56;0.40;;;0.27;;
11767;SDS011;5941;57.652;12.514;2023-03-01T16:12:22;0.20;;;0.20;;
11767;SDS011;5941;57.652;12.514;2023-03-01T16:14:49;0.10;;;0.10;;
11767;SDS011;5941;57.652;12.514;2023-03-01T16:17:15;0.30;;;0.30;;
11767;SDS011;5941;57.652;12.514;2023-03-01T16:19:40;0.30;;;0.20;;
11767;SDS011;5941;57.652;12.514;2023-03-01T16:22:08;0.20;;;0.20;;
11767;SDS011;5941;57.652;12.514;2023-03-01T16:24:34;0.37;;;0.33;;
11767;SDS011;5941;57.652;12.514;2023-03-01T16:27:00;0.97;;;0.30;;
11767;SDS011;5941;57.652;12.514;2023-03-01T16:29:26;0.77;;;0.30;;
11767;SDS011;5941;57.652;12.514;2023-03-01T16:31:54;0.27;;;0.20;;
11767;SDS011;5941;57.652;12.514;2023-03-01T16:34:20;0.23;;;0.20;;
11767;SDS011;5941;57.652;12.514;2023-03-01T16:36:47;0.10;;;0.10;;
11767;SDS011;5941;57.652;12.514;2023-03-01T16:39:13;2.10;;;0.33;;
11767;SDS011;5941;57.652;12.514;2023-03-01T16:41:39;0.70;;;0.27;;
11767;SDS011;5941;57.652;12.514;2023-03-01T16:44:04;0.20;;;0.20;;
11767;SDS011;5941;57.652;12.514;2023-03-01T16:46:30;0.87;;;0.10;;
11767;SDS011;5941;57.652;12.514;2023-03-01T16:48:56;1.33;;;0.30;;
11767;SDS011;5941;57.652;12.514;2023-03-01T16:51:23;0.70;;;0.20;;